Time;durP1;ratioP1;P1;durP2;ratioP2;P2;SDS_P1;SDS_P2;PMS_P1;PMS_P2;Temp;Humidity;BMP_temperature;BMP_pressure;BME280_temperature;BME280_humidity;BME280_pressure;Samples;Min_cycle;Max_cycle;Signal;HPM_P1;HPM_P2
2020/12/15 00:00:45;;;;;;;10.07;8.57;;;6.30;97.50;;;;;;5020905;28;20242;-84
2020/12/15 00:03:11;;;;;;;7.65;6.85;;;6.40;97.20;;;;;;5012999;28;20240;-84
2020/12/15 00:05:37;;;;;;;7.40;6.70;;;6.40;97.10;;;;;;5013156;28;20197;-84
2020/12/15 00:08:04;;;;;;;9.15;7.03;;;6.50;96.70;;;;;;5029485;28;20710;-84
2020/12/15 00:10:31;;;;;;;7.57;6.78;;;6.50;96.20;;;;;;5027319;28;20184;-84
2020/12/15 00:12:57;;;;;;;7.65;6.95;;;6.50;96.30;;;;;;5032336;28;20201;-84
2020/12/15 00:15:24;;;;;;;8.32;6.53;;;6.40;95.70;;;;;;5004978;28;20630;-85
2020/12/15 00:17:50;;;;;;;7.20;6.57;;;6.50;95.80;;;;;;5023240;28;20271;-84
2020/12/15 00:20:16;;;;;;;8.32;6.88;;;6.40;95.80;;;;;;5018146;28;20465;-84
2020/12/15 00:22:43;;;;;;;6.45;5.75;;;6.50;96.00;;;;;;4993354;28;20253;-85
2020/12/15 00:25:10;;;;;;;6.70;6.10;;;6.50;95.80;;;;;;5004221;28;20205;-84
2020/12/15 00:27:37;;;;;;;7.60;6.40;;;6.50;95.80;;;;;;5021858;28;20228;-85
2020/12/15 00:30:04;;;;;;;8.15;7.35;;;6.60;95.90;;;;;;5024854;28;20190;-84
2020/12/15 00:32:30;;;;;;;6.63;5.97;;;6.50;95.60;;;;;;5031158;28;20747;-84
2020/12/15 00:34:57;;;;;;;7.43;6.82;;;6.50;95.60;;;;;;5023114;28;20197;-85
2020/12/15 00:37:23;;;;;;;7.00;6.40;;;6.60;95.40;;;;;;5014223;28;20244;-84
2020/12/15 00:39:49;;;;;;;10.07;7.30;;;7.20;95.70;;;;;;5014616;28;21004;-84
2020/12/15 00:42:17;;;;;;;8.32;7.50;;;6.60;95.50;;;;;;5018405;28;20192;-85
2020/12/15 00:44:44;;;;;;;10.07;7.50;;;6.60;95.50;;;;;;5025488;28;20193;-85
2020/12/15 00:47:10;;;;;;;9.50;7.13;;;6.70;95.20;;;;;;5021601;28;20197;-84
2020/12/15 00:49:36;;;;;;;7.50;6.70;;;6.70;94.70;;;;;;5014391;28;20584;-85
2020/12/15 00:52:03;;;;;;;6.60;6.00;;;6.70;94.80;;;;;;5016767;28;20213;-84
2020/12/15 00:54:29;;;;;;;7.28;6.22;;;6.60;94.80;;;;;;5014353;28;20197;-84
2020/12/15 00:56:56;;;;;;;6.60;5.97;;;6.70;95.00;;;;;;5014190;28;20563;-85
2020/12/15 00:59:22;;;;;;;7.13;6.43;;;6.70;94.90;;;;;;5031910;28;20204;-84
2020/12/15 01:01:49;;;;;;;8.48;6.55;;;6.80;94.60;;;;;;5019117;28;20869;-85
2020/12/15 01:04:16;;;;;;;6.97;6.25;;;6.80;94.00;;;;;;5012151;28;20233;-85
2020/12/15 01:06:42;;;;;;;7.07;6.40;;;6.80;94.00;;;;;;5028719;28;20213;-85
2020/12/15 01:09:08;;;;;;;6.25;5.65;;;6.90;94.10;;;;;;5023370;28;20288;-84
2020/12/15 01:11:35;;;;;;;6.40;5.80;;;6.80;94.10;;;;;;5015317;28;20241;-84
2020/12/15 01:14:01;;;;;;;9.60;6.30;;;6.90;93.80;;;;;;5017636;28;20538;-84
2020/12/15 01:16:28;;;;;;;6.82;5.97;;;6.90;93.80;;;;;;5022489;28;20228;-85
2020/12/15 01:18:56;;;;;;;6.75;6.05;;;6.90;94.00;;;;;;5031289;28;20197;-85
2020/12/15 01:21:26;;;;;;;7.15;6.03;;;6.80;93.80;;;;;;5028654;28;20185;-85
2020/12/15 01:23:52;;;;;;;7.25;6.07;;;6.90;94.00;;;;;;5029378;28;20240;-84
2020/12/15 01:26:20;;;;;;;7.97;5.75;;;6.90;93.90;;;;;;5023159;28;20774;-84
2020/12/15 01:29:05;;;;;;;6.60;6.00;;;6.90;93.70;;;;;;5030626;28;20224;-85
2020/12/15 01:31:34;;;;;;;10.25;5.60;;;7.00;93.70;;;;;;5015872;28;20201;-84
2020/12/15 01:34:01;;;;;;;6.32;5.25;;;6.90;93.70;;;;;;5016410;28;20225;-85
2020/12/15 01:36:28;;;;;;;6.80;5.70;;;7.90;94.20;;;;;;5017682;28;20197;-84
2020/12/15 01:38:55;;;;;;;6.35;5.75;;;7.00;94.00;;;;;;5011655;28;20260;-85
2020/12/15 01:41:21;;;;;;;6.32;5.72;;;6.90;93.50;;;;;;5016385;28;20201;-85
2020/12/15 01:43:55;;;;;;;6.47;5.88;;;7.00;94.00;;;;;;5016017;28;20197;-85
2020/12/15 01:46:21;;;;;;;8.63;5.80;;;7.10;93.70;;;;;;5021783;28;20239;-85
2020/12/15 01:48:48;;;;;;;9.70;6.10;;;7.10;93.10;;;;;;5015865;28;20792;-84
2020/12/15 01:51:16;;;;;;;7.97;5.88;;;7.20;93.50;;;;;;5021967;28;20659;-85
2020/12/15 01:53:44;;;;;;;9.77;6.60;;;7.20;93.80;;;;;;5010752;28;20193;-84
2020/12/15 01:56:11;;;;;;;7.53;6.28;;;7.20;93.70;;;;;;5018422;28;20197;-85
2020/12/15 01:58:39;;;;;;;7.80;6.53;;;7.20;93.90;;;;;;5013728;28;20864;-85
2020/12/15 02:01:06;;;;;;;8.63;6.32;;;7.10;94.10;;;;;;5028114;28;20240;-85
2020/12/15 02:03:34;;;;;;;9.95;7.50;;;7.10;94.30;;;;;;5016807;28;20201;-84
2020/12/15 02:06:04;;;;;;;8.98;7.03;;;7.10;94.40;;;;;;5009183;28;20201;-84
2020/12/15 02:08:33;;;;;;;12.20;8.27;;;7.10;94.40;;;;;;5018594;28;20709;-84
2020/12/15 02:11:03;;;;;;;8.90;6.80;;;7.10;94.50;;;;;;5006157;28;20200;-84
2020/12/15 02:13:33;;;;;;;14.55;9.00;;;7.10;94.50;;;;;;4995839;28;20241;-85
2020/12/15 02:16:01;;;;;;;17.40;11.68;;;7.10;94.60;;;;;;5020418;28;20218;-85
2020/12/15 02:18:28;;;;;;;11.23;8.40;;;6.70;94.20;;;;;;5030746;28;20617;-85
2020/12/15 02:20:56;;;;;;;12.23;8.75;;;7.10;94.30;;;;;;5009779;28;20210;-85
2020/12/15 02:23:24;;;;;;;13.82;7.95;;;7.00;93.60;;;;;;5006748;28;20197;-85
2020/12/15 02:25:56;;;;;;;9.68;7.40;;;7.10;93.70;;;;;;5017462;28;20239;-85
2020/12/15 02:28:23;;;;;;;11.73;7.78;;;7.10;93.90;;;;;;5019385;28;20842;-84
2020/12/15 02:30:51;;;;;;;10.57;7.80;;;7.20;94.20;;;;;;5019577;28;20227;-84
2020/12/15 02:33:19;;;;;;;8.73;6.18;;;7.10;94.30;;;;;;5016668;28;20209;-84
2020/12/15 02:35:46;;;;;;;6.45;5.78;;;7.10;94.20;;;;;;5010341;28;20222;-84
2020/12/15 02:38:15;;;;;;;6.80;6.20;;;7.20;94.30;;;;;;5014284;28;20206;-85
2020/12/15 02:40:44;;;;;;;5.38;4.95;;;7.60;94.10;;;;;;5009779;28;20224;-82
2020/12/15 02:43:12;;;;;;;6.53;5.63;;;7.30;93.40;;;;;;5008475;28;20293;-85
2020/12/15 02:45:40;;;;;;;7.93;5.43;;;7.30;93.10;;;;;;5016722;28;20196;-85
2020/12/15 02:48:07;;;;;;;8.30;5.25;;;7.30;92.90;;;;;;5028851;28;20678;-84
2020/12/15 02:50:33;;;;;;;7.57;5.20;;;7.30;93.30;;;;;;5029046;28;20207;-84
2020/12/15 02:53:00;;;;;;;6.03;4.88;;;7.30;93.50;;;;;;5029966;28;20212;-84
2020/12/15 02:55:26;;;;;;;5.32;4.85;;;7.20;93.40;;;;;;5022419;28;20196;-85
2020/12/15 02:57:53;;;;;;;6.15;5.53;;;7.80;93.70;;;;;;5015921;28;20242;-85
2020/12/15 03:00:20;;;;;;;5.82;5.22;;;7.30;93.30;;;;;;5006911;28;20197;-85
2020/12/15 03:02:48;;;;;;;6.72;4.78;;;7.30;93.30;;;;;;5015018;28;20192;-85
2020/12/15 03:05:15;;;;;;;5.22;4.70;;;7.30;93.40;;;;;;5021033;28;20661;-84
2020/12/15 03:07:41;;;;;;;4.72;4.32;;;7.30;93.10;;;;;;5033311;28;20281;-84
2020/12/15 03:10:10;;;;;;;5.80;4.68;;;7.40;93.10;;;;;;5019184;28;20190;-84
2020/12/15 03:12:37;;;;;;;8.07;5.00;;;7.20;92.20;;;;;;5017360;28;20199;-84
2020/12/15 03:15:05;;;;;;;5.22;4.72;;;7.10;92.70;;;;;;5011349;28;20210;-84
2020/12/15 03:17:32;;;;;;;4.80;4.30;;;7.10;92.30;;;;;;5016051;28;20687;-84
2020/12/15 03:19:58;;;;;;;5.70;4.30;;;7.10;91.70;;;;;;5033634;28;20288;-84
2020/12/15 03:22:25;;;;;;;7.15;5.20;;;7.20;91.60;;;;;;5015461;28;20205;-84
2020/12/15 03:24:51;;;;;;;9.52;6.18;;;7.30;91.50;;;;;;5013844;28;20209;-84
2020/12/15 03:27:18;;;;;;;10.45;6.00;;;7.10;91.60;;;;;;5014281;28;20197;-85
2020/12/15 03:29:44;;;;;;;6.40;5.80;;;7.20;91.70;;;;;;5013797;28;20224;-83
2020/12/15 03:32:12;;;;;;;7.63;5.80;;;7.30;92.00;;;;;;5015172;28;20605;-84
2020/12/15 03:34:38;;;;;;;7.00;6.18;;;7.30;91.70;;;;;;5030100;28;20596;-84
2020/12/15 03:37:04;;;;;;;5.15;4.75;;;7.30;92.10;;;;;;5013728;28;20633;-84
2020/12/15 03:39:31;;;;;;;7.20;5.80;;;7.30;92.10;;;;;;5017305;28;20549;-85
2020/12/15 03:41:57;;;;;;;7.35;6.65;;;7.20;92.00;;;;;;5028315;28;20204;-85
2020/12/15 03:44:24;;;;;;;7.38;6.53;;;7.30;92.20;;;;;;5033328;28;20258;-84
2020/12/15 03:46:50;;;;;;;6.95;6.25;;;7.40;92.30;;;;;;5015355;28;20204;-85
2020/12/15 03:49:17;;;;;;;8.38;6.50;;;7.00;91.80;;;;;;5013246;28;20268;-83
2020/12/15 03:51:44;;;;;;;7.10;6.50;;;7.00;92.80;;;;;;5014746;28;20205;-84
2020/12/15 03:54:10;;;;;;;7.57;6.45;;;6.80;93.10;;;;;;5020984;28;20189;-84
2020/12/15 03:56:37;;;;;;;7.65;6.78;;;7.10;93.30;;;;;;5031394;28;20228;-85
2020/12/15 03:59:03;;;;;;;6.63;6.03;;;7.00;93.60;;;;;;5013704;28;20208;-84
2020/12/15 04:01:29;;;;;;;9.05;8.15;;;7.40;93.80;;;;;;5019115;28;20221;-84
2020/12/15 04:03:56;;;;;;;8.38;6.50;;;7.20;93.60;;;;;;5017666;28;20189;-84
2020/12/15 04:06:23;;;;;;;8.57;7.38;;;7.20;93.50;;;;;;5017837;28;20255;-85
2020/12/15 04:08:49;;;;;;;8.70;7.32;;;7.90;93.90;;;;;;5017062;28;20274;-83
2020/12/15 04:11:16;;;;;;;8.00;7.00;;;7.20;93.50;;;;;;5021140;28;20193;-84
2020/12/15 04:13:43;;;;;;;7.43;6.05;;;7.20;93.50;;;;;;5015367;28;20233;-84
2020/12/15 04:16:09;;;;;;;8.48;7.47;;;7.20;93.50;;;;;;5021032;28;20229;-85
2020/12/15 04:18:36;;;;;;;10.43;7.45;;;7.00;93.20;;;;;;5017513;28;20185;-85
2020/12/15 04:21:02;;;;;;;9.43;8.05;;;7.00;93.30;;;;;;5029513;28;20216;-84
2020/12/15 04:23:29;;;;;;;11.38;7.45;;;7.00;93.70;;;;;;5032715;28;20232;-84
2020/12/15 04:25:59;;;;;;;10.32;8.02;;;7.00;93.70;;;;;;5013735;28;20224;-84
2020/12/15 04:28:26;;;;;;;7.93;6.75;;;7.20;93.50;;;;;;5019942;28;20308;-85
2020/12/15 04:30:52;;;;;;;9.65;7.72;;;7.20;93.50;;;;;;5021062;28;20200;-84
2020/12/15 04:33:19;;;;;;;8.68;7.70;;;7.20;93.20;;;;;;5021023;28;20205;-84
2020/12/15 04:35:45;;;;;;;11.07;7.47;;;7.30;93.20;;;;;;5022878;28;20190;-84
2020/12/15 04:38:12;;;;;;;10.80;7.88;;;7.20;93.00;;;;;;5025782;28;20259;-84
2020/12/15 04:40:40;;;;;;;9.55;7.15;;;7.10;93.30;;;;;;5016175;28;20200;-84
2020/12/15 04:43:09;;;;;;;8.40;7.60;;;7.20;93.50;;;;;;5014755;28;20190;-85
2020/12/15 04:45:36;;;;;;;10.10;7.78;;;6.90;93.10;;;;;;5022517;28;20185;-83
2020/12/15 04:48:07;;;;;;;9.05;7.22;;;6.90;93.90;;;;;;5031624;28;20217;-84
2020/12/15 04:50:35;;;;;;;7.82;6.07;;;7.00;93.90;;;;;;5023590;28;20193;-84
2020/12/15 04:53:08;;;;;;;7.60;6.57;;;7.10;93.80;;;;;;5012143;28;20252;-84
2020/12/15 04:55:36;;;;;;;7.32;6.13;;;7.20;93.80;;;;;;5023793;28;20278;-85
2020/12/15 04:58:04;;;;;;;6.07;5.25;;;7.20;93.60;;;;;;5030033;28;20200;-84
2020/12/15 05:00:30;;;;;;;6.57;5.85;;;7.30;92.90;;;;;;5025775;28;20921;-85
2020/12/15 05:02:58;;;;;;;7.13;5.93;;;7.30;93.10;;;;;;5012145;28;20280;-85
2020/12/15 05:05:25;;;;;;;8.40;4.90;;;7.20;93.20;;;;;;5020949;28;20247;-84
2020/12/15 05:07:53;;;;;;;7.20;5.22;;;7.60;93.80;;;;;;5026606;28;20197;-85
2020/12/15 05:10:21;;;;;;;6.97;5.30;;;7.20;93.90;;;;;;5013422;28;20197;-84
2020/12/15 05:12:48;;;;;;;5.35;4.70;;;7.90;94.00;;;;;;5011733;28;20212;-84
2020/12/15 05:15:17;;;;;;;8.82;5.65;;;7.20;93.50;;;;;;5017780;28;20200;-84
2020/12/15 05:17:45;;;;;;;7.97;5.50;;;7.30;93.70;;;;;;5013284;28;20551;-84
2020/12/15 05:20:17;;;;;;;6.35;5.20;;;7.40;92.90;;;;;;5012333;28;20197;-85
2020/12/15 05:22:45;;;;;;;7.20;4.93;;;7.40;92.50;;;;;;5031421;28;20270;-84
2020/12/15 05:25:22;;;;;;;5.45;4.95;;;7.40;92.30;;;;;;5028904;28;20282;-84
2020/12/15 05:27:49;;;;;;;9.80;6.03;;;7.50;92.40;;;;;;5003220;28;20201;-84
2020/12/15 05:30:16;;;;;;;5.50;5.00;;;7.50;92.40;;;;;;5011917;28;20213;-84
2020/12/15 05:32:51;;;;;;;6.22;5.30;;;7.50;92.60;;;;;;5019526;28;20198;-85
2020/12/15 05:35:24;;;;;;;4.78;4.18;;;7.50;92.40;;;;;;5015796;28;20670;-85
2020/12/15 05:37:50;;;;;;;7.30;6.35;;;7.40;92.40;;;;;;5011177;28;20240;-86
2020/12/15 05:40:17;;;;;;;5.30;4.80;;;7.40;92.40;;;;;;5018745;28;20237;-87
2020/12/15 05:42:43;;;;;;;6.22;5.60;;;7.40;92.90;;;;;;5024684;28;20559;-86
2020/12/15 05:45:18;;;;;;;7.35;5.50;;;7.40;93.20;;;;;;5028537;28;20284;-86
2020/12/15 05:47:48;;;;;;;8.13;5.10;;;7.40;93.20;;;;;;5007222;28;20239;-87
2020/12/15 05:50:22;;;;;;;6.30;5.70;;;7.40;93.40;;;;;;5026100;28;20208;-86
2020/12/15 05:52:56;;;;;;;6.45;4.95;;;7.30;93.50;;;;;;5018799;28;20280;-86
2020/12/15 05:55:22;;;;;;;6.97;5.13;;;7.30;93.70;;;;;;5026834;28;20222;-86
2020/12/15 05:57:50;;;;;;;6.85;6.10;;;7.40;93.80;;;;;;5029137;28;20677;-86
2020/12/15 06:00:17;;;;;;;6.28;5.15;;;7.50;93.40;;;;;;5028079;28;20200;-87
2020/12/15 06:02:56;;;;;;;5.93;4.95;;;7.50;93.40;;;;;;5010552;28;20209;-86
2020/12/15 06:05:26;;;;;;;6.38;5.78;;;7.50;93.60;;;;;;5017247;28;20203;-86
2020/12/15 06:07:54;;;;;;;6.38;5.10;;;7.60;93.50;;;;;;4991434;28;20194;-86
2020/12/15 06:10:21;;;;;;;9.82;6.50;;;7.60;93.20;;;;;;5002511;28;20204;-85
2020/12/15 06:12:50;;;;;;;8.73;5.35;;;7.70;93.40;;;;;;5023042;28;20224;-86
2020/12/15 06:15:17;;;;;;;7.78;5.38;;;7.60;93.10;;;;;;5021733;28;20631;-86
2020/12/15 06:17:48;;;;;;;6.93;5.97;;;7.60;92.90;;;;;;5028207;28;20200;-86
2020/12/15 06:20:19;;;;;;;6.63;5.43;;;7.70;93.10;;;;;;5015496;28;20197;-86
2020/12/15 06:22:46;;;;;;;7.78;6.45;;;7.60;93.30;;;;;;5030700;28;20192;-86
2020/12/15 06:25:23;;;;;;;6.97;6.32;;;7.60;93.10;;;;;;5015870;28;20202;-86
2020/12/15 06:27:59;;;;;;;11.45;6.97;;;7.60;93.50;;;;;;5009541;28;20204;-86
2020/12/15 06:30:29;;;;;;;7.63;6.82;;;7.60;93.20;;;;;;5020056;28;20199;-84
2020/12/15 06:32:59;;;;;;;7.53;6.82;;;7.50;93.20;;;;;;5004746;28;20194;-85
2020/12/15 06:35:25;;;;;;;8.13;7.20;;;7.40;93.30;;;;;;5012216;28;20212;-87
2020/12/15 06:37:52;;;;;;;9.68;7.03;;;7.60;93.60;;;;;;5026872;28;20197;-85
2020/12/15 06:40:18;;;;;;;8.32;7.53;;;7.50;93.90;;;;;;5013991;28;20205;-86
2020/12/15 06:42:49;;;;;;;11.55;8.10;;;7.50;94.30;;;;;;5013670;28;20243;-86
2020/12/15 06:45:15;;;;;;;9.70;7.65;;;7.50;94.00;;;;;;5013597;28;20185;-87
2020/12/15 06:47:42;;;;;;;9.18;8.23;;;7.40;93.90;;;;;;5025645;28;20197;-85
2020/12/15 06:50:11;;;;;;;8.60;7.80;;;7.50;94.00;;;;;;5012889;28;20228;-86
2020/12/15 06:52:38;;;;;;;11.63;8.68;;;8.40;94.80;;;;;;5024328;28;20193;-86
2020/12/15 06:55:04;;;;;;;11.65;9.25;;;7.30;94.30;;;;;;5027935;28;20208;-86
2020/12/15 06:57:34;;;;;;;10.10;9.07;;;7.30;94.30;;;;;;5028442;28;20723;-85
2020/12/15 07:00:04;;;;;;;9.65;8.60;;;7.40;94.50;;;;;;5019007;28;20280;-86
2020/12/15 07:02:32;;;;;;;12.40;8.13;;;7.40;94.50;;;;;;5031126;28;20717;-86
2020/12/15 07:05:23;;;;;;;8.88;8.02;;;7.50;94.30;;;;;;5011713;28;20210;-86
2020/12/15 07:07:51;;;;;;;10.18;8.80;;;7.60;94.20;;;;;;5028676;28;20201;-85
2020/12/15 07:10:19;;;;;;;10.32;9.40;;;7.50;94.00;;;;;;5030221;28;20304;-84
2020/12/15 07:12:47;;;;;;;10.82;9.10;;;7.40;94.10;;;;;;5032536;28;20204;-84
2020/12/15 07:15:14;;;;;;;9.15;8.35;;;7.40;94.30;;;;;;5014819;28;20211;-84
2020/12/15 07:17:51;;;;;;;9.95;9.00;;;7.50;94.30;;;;;;5012370;28;20543;-84
2020/12/15 07:20:20;;;;;;;11.18;8.48;;;7.70;94.20;;;;;;5017746;28;20204;-85
2020/12/15 07:22:47;;;;;;;11.15;8.77;;;7.60;93.90;;;;;;5032806;28;20263;-85
2020/12/15 07:25:17;;;;;;;11.80;9.43;;;7.70;93.80;;;;;;5027648;28;20655;-85
2020/12/15 07:27:45;;;;;;;9.85;8.55;;;7.80;93.60;;;;;;5012544;28;20198;-84
2020/12/15 07:30:13;;;;;;;10.02;9.02;;;7.50;93.70;;;;;;5012632;28;20237;-84
2020/12/15 07:32:40;;;;;;;9.52;7.80;;;7.40;94.10;;;;;;5012593;28;20729;-85
2020/12/15 07:35:08;;;;;;;11.88;8.27;;;7.60;93.80;;;;;;5016912;28;20193;-84
2020/12/15 07:37:38;;;;;;;10.27;8.60;;;7.60;93.60;;;;;;5030229;28;20201;-84
2020/12/15 07:40:08;;;;;;;11.60;8.18;;;7.60;93.80;;;;;;5019451;28;20227;-84
2020/12/15 07:42:35;;;;;;;12.60;8.55;;;7.50;93.90;;;;;;5029962;28;20198;-84
2020/12/15 07:45:06;;;;;;;9.65;8.65;;;7.50;94.10;;;;;;5021894;28;20243;-84
2020/12/15 07:47:39;;;;;;;11.60;8.20;;;7.50;94.00;;;;;;5032176;28;20247;-85
2020/12/15 07:50:06;;;;;;;12.35;8.77;;;7.50;94.20;;;;;;5029101;28;20225;-84
2020/12/15 07:52:33;;;;;;;9.50;8.60;;;7.50;94.00;;;;;;5035489;28;20231;-84
2020/12/15 07:55:09;;;;;;;10.60;9.38;;;7.50;94.20;;;;;;5034274;28;20204;-84
2020/12/15 07:57:37;;;;;;;9.45;8.45;;;7.60;94.20;;;;;;5011034;28;20247;-84
2020/12/15 08:00:09;;;;;;;8.38;7.68;;;7.50;94.10;;;;;;5023910;28;20196;-84
2020/12/15 08:02:36;;;;;;;9.63;8.18;;;7.60;94.30;;;;;;5037907;28;20212;-84
2020/12/15 08:05:08;;;;;;;9.73;8.80;;;7.60;94.40;;;;;;5033370;28;20189;-84
2020/12/15 08:07:48;;;;;;;8.98;8.10;;;7.50;94.50;;;;;;5033469;28;20196;-85
2020/12/15 08:10:16;;;;;;;13.35;9.52;;;7.50;94.60;;;;;;5025574;28;20228;-84
2020/12/15 08:12:43;;;;;;;12.20;8.57;;;7.60;94.70;;;;;;5032793;28;20256;-84
2020/12/15 08:15:13;;;;;;;14.00;8.63;;;7.60;94.70;;;;;;5019869;28;20236;-85
2020/12/15 08:17:41;;;;;;;12.32;7.95;;;7.70;94.60;;;;;;5037561;28;20220;-84
2020/12/15 08:20:08;;;;;;;9.07;8.27;;;7.90;94.40;;;;;;5021950;28;20227;-84
2020/12/15 08:22:39;;;;;;;9.63;7.95;;;7.90;94.10;;;;;;5036117;28;20234;-84
2020/12/15 08:25:09;;;;;;;13.88;8.60;;;8.00;94.00;;;;;;5031628;28;20193;-84
2020/12/15 08:27:37;;;;;;;12.15;8.57;;;8.00;93.90;;;;;;5023069;28;20821;-84
2020/12/15 08:30:14;;;;;;;9.48;8.27;;;8.00;94.00;;;;;;5027844;28;20244;-84
2020/12/15 08:32:46;;;;;;;10.82;8.45;;;8.00;94.10;;;;;;5015397;28;20201;-83
2020/12/15 08:35:13;;;;;;;9.13;8.20;;;8.00;94.00;;;;;;5026820;28;20250;-84
2020/12/15 08:37:43;;;;;;;15.85;8.70;;;7.90;93.80;;;;;;5020883;28;20241;-85
2020/12/15 08:40:11;;;;;;;11.90;9.27;;;8.00;93.90;;;;;;5008136;28;20216;-84
2020/12/15 08:42:42;;;;;;;14.00;9.15;;;8.00;93.90;;;;;;5017761;28;20229;-85
2020/12/15 08:45:14;;;;;;;11.43;8.15;;;8.00;94.00;;;;;;5010708;28;20219;-85
2020/12/15 08:47:45;;;;;;;9.98;7.88;;;8.10;93.90;;;;;;5005720;28;20194;-85
2020/12/15 08:50:13;;;;;;;8.88;7.70;;;8.20;93.90;;;;;;5020650;28;20229;-84
2020/12/15 08:52:40;;;;;;;11.25;8.63;;;8.20;93.70;;;;;;5034153;28;20284;-84
2020/12/15 08:55:06;;;;;;;11.32;7.75;;;8.20;93.80;;;;;;5034150;28;20193;-84
2020/12/15 08:57:33;;;;;;;14.60;9.13;;;8.10;93.60;;;;;;5020295;28;20205;-85
2020/12/15 09:00:16;;;;;;;9.25;7.80;;;8.10;93.80;;;;;;5020472;28;20240;-82
2020/12/15 09:02:43;;;;;;;9.18;8.13;;;8.10;93.80;;;;;;4996074;28;20206;-84
2020/12/15 09:05:11;;;;;;;13.52;8.27;;;8.10;94.00;;;;;;5026579;28;20189;-83
2020/12/15 09:07:38;;;;;;;8.65;7.07;;;8.00;94.10;;;;;;5031832;28;20258;-83
2020/12/15 09:10:13;;;;;;;10.38;7.03;;;8.00;94.10;;;;;;5031732;28;20265;-83
2020/12/15 09:12:43;;;;;;;11.57;8.10;;;8.00;94.00;;;;;;5036193;28;20208;-83
2020/12/15 09:15:10;;;;;;;9.68;8.05;;;8.00;94.10;;;;;;5026337;28;20279;-83
2020/12/15 09:17:38;;;;;;;8.82;7.45;;;8.00;94.00;;;;;;5015418;28;20722;-83
2020/12/15 09:20:08;;;;;;;12.45;8.25;;;7.90;94.10;;;;;;5016858;28;20243;-83
2020/12/15 09:22:36;;;;;;;11.00;8.93;;;8.00;94.30;;;;;;5035873;28;20261;-83
2020/12/15 09:25:11;;;;;;;16.45;8.75;;;7.90;94.30;;;;;;5033326;28;20204;-83
2020/12/15 09:27:38;;;;;;;11.85;8.85;;;7.90;94.20;;;;;;5020846;28;20211;-83
2020/12/15 09:30:05;;;;;;;14.15;9.50;;;8.00;94.40;;;;;;5013826;28;20229;-83
2020/12/15 09:32:33;;;;;;;10.77;8.80;;;8.30;94.60;;;;;;5017348;28;20198;-83
2020/12/15 09:35:00;;;;;;;10.48;8.70;;;8.10;94.20;;;;;;5011641;28;20189;-81
2020/12/15 09:37:26;;;;;;;10.07;8.43;;;8.10;94.10;;;;;;5010730;28;20209;-82
2020/12/15 09:39:53;;;;;;;11.45;8.68;;;8.20;94.10;;;;;;5015555;28;20584;-83
2020/12/15 09:42:20;;;;;;;10.60;8.73;;;8.30;94.20;;;;;;5015984;28;20198;-83
2020/12/15 09:44:47;;;;;;;10.10;9.20;;;8.30;94.20;;;;;;5014654;28;20605;-83
2020/12/15 09:47:13;;;;;;;11.18;8.93;;;8.40;94.20;;;;;;5028462;28;20247;-85
2020/12/15 09:49:40;;;;;;;10.80;8.63;;;8.40;94.00;;;;;;5011221;28;20281;-84
2020/12/15 09:52:07;;;;;;;11.05;9.02;;;8.30;94.20;;;;;;5013461;28;20192;-85
2020/12/15 09:54:33;;;;;;;10.68;9.27;;;8.40;94.20;;;;;;5013864;28;20244;-84
2020/12/15 09:57:00;;;;;;;10.93;8.77;;;8.50;94.00;;;;;;5013740;28;20202;-85
2020/12/15 09:59:26;;;;;;;15.13;9.27;;;8.60;93.90;;;;;;5014171;28;20197;-84
2020/12/15 10:01:53;;;;;;;9.68;8.65;;;8.40;93.60;;;;;;5014696;28;20202;-85
2020/12/15 10:04:19;;;;;;;10.77;9.00;;;8.50;93.80;;;;;;5012798;28;20718;-84
2020/12/15 10:06:48;;;;;;;12.48;9.40;;;8.40;93.90;;;;;;5031311;28;20211;-85
2020/12/15 10:09:16;;;;;;;11.98;9.52;;;8.20;93.80;;;;;;5033482;28;20275;-84
2020/12/15 10:11:42;;;;;;;9.98;7.93;;;8.00;94.30;;;;;;5014528;28;20193;-84
2020/12/15 10:14:09;;;;;;;13.05;8.82;;;8.10;94.60;;;;;;5013572;28;20216;-84
2020/12/15 10:16:35;;;;;;;9.40;8.50;;;8.20;94.60;;;;;;5016343;28;20224;-85
2020/12/15 10:19:02;;;;;;;9.88;8.88;;;8.50;94.40;;;;;;5010855;28;20189;-84
2020/12/15 10:21:28;;;;;;;11.32;8.80;;;8.70;94.00;;;;;;5018214;28;20208;-86
2020/12/15 10:23:55;;;;;;;12.00;10.00;;;8.80;93.40;;;;;;5014274;28;20205;-85
2020/12/15 10:26:24;;;;;;;11.63;9.48;;;8.80;93.40;;;;;;5024806;28;20208;-85
2020/12/15 10:28:53;;;;;;;10.32;9.18;;;8.80;93.40;;;;;;5017609;28;20217;-85
2020/12/15 10:31:19;;;;;;;10.07;9.00;;;8.80;93.20;;;;;;5014610;28;20196;-84
2020/12/15 10:33:46;;;;;;;11.25;9.48;;;8.90;93.20;;;;;;5016491;28;20202;-81
2020/12/15 10:36:13;;;;;;;12.43;10.15;;;9.10;93.10;;;;;;5022442;28;20236;-84
2020/12/15 10:38:40;;;;;;;11.00;8.98;;;9.20;93.00;;;;;;5014340;28;20205;-84
2020/12/15 10:41:07;;;;;;;10.20;9.10;;;9.30;93.10;;;;;;5010395;28;20197;-85
2020/12/15 10:43:35;;;;;;;9.98;8.93;;;9.20;92.70;;;;;;5011241;28;20251;-84
2020/12/15 10:46:02;;;;;;;9.75;8.70;;;9.40;93.00;;;;;;5017775;28;20196;-85
2020/12/15 10:48:29;;;;;;;10.75;9.15;;;9.40;92.70;;;;;;5017969;28;20244;-83
2020/12/15 10:50:55;;;;;;;11.02;9.88;;;9.50;92.60;;;;;;5018436;28;20259;-85
2020/12/15 10:53:22;;;;;;;10.90;9.80;;;9.60;92.70;;;;;;5013314;28;20201;-84
2020/12/15 10:55:49;;;;;;;10.03;9.03;;;9.60;92.80;;;;;;5013269;28;20205;-85
2020/12/15 10:58:15;;;;;;;10.83;9.10;;;9.70;92.80;;;;;;5014765;28;20611;-85
2020/12/15 11:00:43;;;;;;;10.63;9.07;;;9.80;92.90;;;;;;5013645;28;22228;-84
2020/12/15 11:03:09;;;;;;;11.30;10.07;;;9.80;92.80;;;;;;5015074;28;20632;-85
2020/12/15 11:05:35;;;;;;;10.30;8.77;;;9.80;92.90;;;;;;5023609;28;20621;-85
2020/12/15 11:08:02;;;;;;;9.10;8.32;;;9.80;92.90;;;;;;5016217;28;20638;-87
2020/12/15 11:10:31;;;;;;;11.05;8.88;;;9.80;92.80;;;;;;5016035;28;21852;-87
2020/12/15 11:13:00;;;;;;;12.57;9.13;;;9.70;93.10;;;;;;5029901;28;20279;-86
2020/12/15 11:15:27;;;;;;;10.43;8.57;;;9.80;93.30;;;;;;5018058;28;20647;-87
2020/12/15 11:17:54;;;;;;;11.43;7.90;;;9.80;93.40;;;;;;5033330;28;21164;-87
2020/12/15 11:20:21;;;;;;;9.00;8.07;;;9.90;94.10;;;;;;5021390;28;20630;-87
2020/12/15 11:22:48;;;;;;;9.53;8.20;;;10.00;93.10;;;;;;5029545;28;20666;-87
2020/12/15 11:25:17;;;;;;;14.87;8.97;;;10.10;93.00;;;;;;5015729;28;20624;-87
2020/12/15 11:27:44;;;;;;;17.73;12.50;;;10.20;93.20;;;;;;5020635;28;20635;-86
2020/12/15 11:30:11;;;;;;;13.83;11.60;;;10.30;93.20;;;;;;5025324;28;21082;-86
2020/12/15 11:32:38;;;;;;;27.43;11.43;;;10.30;93.20;;;;;;5015959;28;20674;-85
2020/12/15 11:35:05;;;;;;;16.43;11.40;;;10.30;93.40;;;;;;5025477;28;20638;-87
2020/12/15 11:37:32;;;;;;;10.60;9.03;;;10.10;93.70;;;;;;5016331;28;20670;-86
2020/12/15 11:39:59;;;;;;;13.13;8.77;;;10.20;93.70;;;;;;5015711;28;20663;-87
2020/12/15 11:42:26;;;;;;;8.87;7.10;;;10.30;93.60;;;;;;5015303;28;20667;-87
2020/12/15 11:44:52;;;;;;;8.33;7.50;;;10.30;93.50;;;;;;5024058;28;20620;-87
2020/12/15 11:47:21;;;;;;;8.00;7.20;;;10.40;93.40;;;;;;5011422;28;20624;-87
2020/12/15 11:49:48;;;;;;;9.23;8.10;;;10.30;93.90;;;;;;5015821;28;20726;-86
2020/12/15 11:52:15;;;;;;;7.13;6.40;;;10.30;93.80;;;;;;5017419;28;20620;-87
2020/12/15 11:54:41;;;;;;;7.43;6.60;;;10.50;93.90;;;;;;5018706;28;20608;-86
2020/12/15 11:57:08;;;;;;;8.37;6.27;;;10.60;93.80;;;;;;5025493;28;20615;-87
2020/12/15 11:59:37;;;;;;;7.03;6.30;;;10.70;93.60;;;;;;5037592;28;20630;-86
2020/12/15 12:02:03;;;;;;;7.33;6.63;;;10.70;93.70;;;;;;5033494;28;20627;-87
2020/12/15 12:04:30;;;;;;;11.83;7.37;;;10.80;93.80;;;;;;5013629;28;20620;-87
2020/12/15 12:06:56;;;;;;;10.43;6.40;;;10.90;93.70;;;;;;5001407;28;20616;-86
2020/12/15 12:09:23;;;;;;;7.60;6.43;;;10.80;93.50;;;;;;5016000;28;20664;-85
2020/12/15 12:11:50;;;;;;;9.43;6.50;;;10.90;93.70;;;;;;5033249;28;20709;-87
2020/12/15 12:14:17;;;;;;;8.63;5.93;;;10.80;93.60;;;;;;5009792;28;20613;-87
2020/12/15 12:16:43;;;;;;;6.93;6.23;;;11.00;93.50;;;;;;5012994;28;20616;-87
2020/12/15 12:19:12;;;;;;;8.77;6.23;;;11.10;93.40;;;;;;5010963;28;20620;-87
2020/12/15 12:21:40;;;;;;;7.97;6.43;;;11.10;93.40;;;;;;5012071;28;20616;-84
2020/12/15 12:24:07;;;;;;;13.80;6.90;;;11.10;93.30;;;;;;5012228;28;20620;-87
2020/12/15 12:26:37;;;;;;;8.87;6.87;;;11.10;93.20;;;;;;5012244;28;20624;-87
2020/12/15 12:29:03;;;;;;;6.80;6.10;;;11.20;93.40;;;;;;5006529;28;20676;-87
2020/12/15 12:31:30;;;;;;;6.93;5.70;;;11.20;93.40;;;;;;5006335;28;20620;-86
2020/12/15 12:33:56;;;;;;;10.37;6.37;;;11.20;93.30;;;;;;5010861;28;20629;-86
2020/12/15 12:36:23;;;;;;;12.37;8.10;;;11.20;93.20;;;;;;5014456;28;20699;-87
2020/12/15 12:38:49;;;;;;;10.80;9.40;;;10.90;93.30;;;;;;5014390;28;20620;-87
2020/12/15 12:41:16;;;;;;;9.80;8.73;;;10.80;93.60;;;;;;5013679;28;20662;-87
2020/12/15 12:43:44;;;;;;;16.33;9.10;;;10.60;93.80;;;;;;5014851;28;20674;-87
2020/12/15 12:46:14;;;;;;;11.87;9.60;;;10.70;93.90;;;;;;5022728;28;20654;-87
2020/12/15 12:48:41;;;;;;;9.73;8.83;;;10.70;94.00;;;;;;5017858;28;20652;-87
2020/12/15 12:51:07;;;;;;;11.07;9.40;;;10.70;94.10;;;;;;5014714;28;20608;-87
2020/12/15 12:53:33;;;;;;;11.40;9.80;;;10.70;94.30;;;;;;5015723;28;20620;-86
2020/12/15 12:56:00;;;;;;;11.17;9.97;;;10.60;94.40;;;;;;5015772;28;20604;-87